Time;durP1;ratioP1;P1;durP2;ratioP2;P2;SDS_P1;SDS_P2;PMS_P1;PMS_P2;Temp;Humidity;BMP_temperature;BMP_pressure;BME280_temperature;BME280_humidity;BME280_pressure;Samples;Min_cycle;Max_cycle;Signal;HPM_P1;HPM_P2
2023/10/16 00:00:45;;;;;;;11.10;10.80;;;;;;;-141.02;100.00;40130.19;5094433;28;20189;-61
2023/10/16 00:03:14;;;;;;;10.35;10.05;;;;;;;-141.02;100.00;40149.38;5094680;28;20595;-65
2023/10/16 00:05:49;;;;;;;11.57;11.27;;;;;;;-141.02;100.00;40195.41;5094157;28;20194;-59
2023/10/16 00:08:17;;;;;;;11.13;10.82;;;;;;;-141.02;100.00;40203.06;5094659;28;20189;-64
2023/10/16 00:10:55;;;;;;;11.75;11.43;;;;;;;-141.02;100.00;40226.09;5094300;28;20189;-62
2023/10/16 00:13:26;;;;;;;11.60;11.30;;;;;;;-141.02;100.00;40233.75;5094307;28;20195;-68
2023/10/16 00:15:55;;;;;;;11.65;11.35;;;;;;;-141.02;100.00;40241.44;5094862;28;20213;-65
2023/10/16 00:18:23;;;;;;;11.82;11.43;;;;;;;-141.02;100.00;40249.13;5094084;28;20200;-68
2023/10/16 00:20:52;;;;;;;12.10;11.70;;;;;;;-141.02;100.00;40289.41;5085468;28;20298;-69
2023/10/16 00:23:24;;;;;;;12.02;11.63;;;;;;;-141.02;100.00;40310.50;5073790;28;20241;-67
2023/10/16 00:25:51;;;;;;;11.38;11.07;;;;;;;-141.02;100.00;40272.13;5073874;28;20197;-68
2023/10/16 00:28:21;;;;;;;11.88;11.48;;;;;;;-141.02;100.00;40314.34;5073622;28;20230;-69
2023/10/16 00:30:48;;;;;;;11.63;11.32;;;;;;;-141.02;100.00;40287.47;5083577;28;20205;-68
2023/10/16 00:33:16;;;;;;;11.60;11.30;;;;;;;-141.02;100.00;40260.63;5093710;28;20198;-69
2023/10/16 00:35:45;;;;;;;11.73;11.43;;;;;;;-141.02;100.00;40272.13;5094081;28;20249;-66
2023/10/16 00:38:14;;;;;;;11.50;11.20;;;;;;;-141.02;100.00;40262.53;5093992;28;20267;-67
2023/10/16 00:40:44;;;;;;;11.27;10.98;;;;;;;-141.02;100.00;40283.63;5093972;28;20286;-68
2023/10/16 00:43:17;;;;;;;10.90;10.60;;;;;;;-141.02;100.00;40264.47;5093857;28;20244;-66
2023/10/16 00:45:50;;;;;;;11.50;11.20;;;;;;;-141.02;100.00;40287.47;5093247;28;20191;-64
2023/10/16 00:48:18;;;;;;;10.75;10.45;;;;;;;-141.02;100.00;40272.13;5093832;28;20186;-65
2023/10/16 00:50:48;;;;;;;11.00;10.70;;;;;;;-141.02;100.00;40268.28;5093273;28;20243;-65
2023/10/16 00:57:07;;;;;;;10.57;10.27;;;;;;;-141.02;100.00;40203.06;5093510;28;20177;-61
2023/10/16 00:59:35;;;;;;;10.70;10.40;;;;;;;-141.02;100.00;40316.25;5093812;28;20287;-65
2023/10/16 01:02:07;;;;;;;9.80;9.50;;;;;;;-141.02;100.00;40228.00;5093586;28;20193;-67
2023/10/16 01:04:35;;;;;;;10.70;10.40;;;;;;;-141.02;100.00;40229.94;5081922;28;20190;-65
2023/10/16 01:07:05;;;;;;;10.60;10.30;;;;;;;-141.02;100.00;40199.22;5073381;28;20225;-67
2023/10/16 01:09:35;;;;;;;10.10;9.80;;;;;;;-141.02;100.00;40245.28;5073190;28;20198;-66
2023/10/16 01:12:06;;;;;;;9.98;9.68;;;;;;;-141.02;100.00;40151.28;5072778;28;20248;-64
2023/10/16 01:14:35;;;;;;;9.70;9.40;;;;;;;-141.02;100.00;40072.63;5073125;28;20259;-66
2023/10/16 01:17:04;;;;;;;10.30;10.00;;;;;;;-141.02;100.00;40013.16;5073033;28;20198;-67
2023/10/16 01:19:32;;;;;;;9.83;9.53;;;;;;;-141.02;100.00;39965.22;5072723;28;20751;-61
2023/10/16 01:22:00;;;;;;;9.10;8.90;;;;;;;-141.02;100.00;39855.88;5072962;28;20286;-64
2023/10/16 01:24:34;;;;;;;9.10;8.90;;;;;;;-141.02;100.00;39769.56;5072572;28;20733;-65
2023/10/16 01:27:29;;;;;;;9.10;8.90;;;;;;;-141.02;100.00;39658.34;5072721;28;20313;-67
2023/10/16 01:30:01;;;;;;;8.80;8.60;;;;;;;-141.02;100.00;39612.31;5072553;28;20197;-62
2023/10/16 01:32:29;;;;;;;8.90;8.70;;;;;;;-141.02;100.00;39508.75;5073414;28;20198;-68
2023/10/16 01:34:56;;;;;;;9.00;8.80;;;;;;;-141.02;100.00;39424.34;5072529;28;20201;-65
2023/10/16 01:37:25;;;;;;;9.20;9.00;;;;;;;-141.02;100.00;39443.53;5072303;28;20223;-58
2023/10/16 01:39:55;;;;;;;9.30;9.10;;;;;;;-141.02;100.00;39478.06;5072298;28;20277;-58
2023/10/16 01:42:23;;;;;;;9.97;9.67;;;;;;;-141.02;100.00;39501.06;5072275;28;20243;-65
2023/10/16 01:44:52;;;;;;;9.70;9.40;;;;;;;-141.02;100.00;39504.91;5072238;28;20194;-67
2023/10/16 01:47:19;;;;;;;10.83;10.53;;;;;;;-141.02;100.00;39545.19;5072144;28;20691;-59
2023/10/16 01:49:48;;;;;;;10.60;10.30;;;;;;;-141.02;100.00;39608.47;5072144;28;20205;-64
2023/10/16 01:52:15;;;;;;;10.80;10.50;;;;;;;-141.02;100.00;39727.38;5072076;28;20234;-67
2023/10/16 01:58:05;;;;;;;11.40;11.10;;;;;;;-141.02;100.00;39842.47;5071377;28;20668;-64
2023/10/16 02:00:35;;;;;;;11.33;11.03;;;;;;;-141.02;100.00;39907.69;5072389;28;20277;-59
2023/10/16 02:03:08;;;;;;;12.02;11.63;;;;;;;-141.02;100.00;39984.41;5072564;28;20285;-61
2023/10/16 02:05:41;;;;;;;12.38;11.98;;;;;;;-141.02;100.00;40040.03;5072051;28;20191;-61
2023/10/16 02:08:08;;;;;;;12.23;11.83;;;;;;;-141.02;100.00;40057.28;5072220;28;20238;-65
2023/10/16 02:10:36;;;;;;;12.50;12.10;;;;;;;-141.02;100.00;40084.16;5072251;28;20277;-64
2023/10/16 02:13:05;;;;;;;12.07;11.67;;;;;;;-141.02;100.00;40086.06;5072031;28;20195;-65
2023/10/16 02:15:36;;;;;;;12.03;11.63;;;;;;;-141.02;100.00;40126.34;5071972;28;20280;-61
2023/10/16 02:18:04;;;;;;;12.90;12.50;;;;;;;-141.02;100.00;40118.66;5071920;28;20645;-61
2023/10/16 02:20:36;;;;;;;12.77;12.37;;;;;;;-141.02;100.00;40183.88;5072083;28;20229;-67
2023/10/16 02:23:06;;;;;;;12.80;12.40;;;;;;;-141.02;100.00;40206.91;5071913;28;20191;-68
2023/10/16 02:25:35;;;;;;;12.90;12.50;;;;;;;-141.02;100.00;40210.75;5072222;28;20252;-66
2023/10/16 02:28:04;;;;;;;12.75;12.35;;;;;;;-141.02;100.00;40262.53;5072052;28;20233;-65
2023/10/16 02:30:38;;;;;;;11.73;11.43;;;;;;;-141.02;100.00;40268.28;5071996;28;20198;-62
2023/10/16 02:33:14;;;;;;;28.07;26.97;;;;;;;-141.02;100.00;40274.06;5071868;28;20221;-67
2023/10/16 02:35:48;;;;;;;27.13;26.03;;;;;;;-141.02;100.00;40302.81;5071826;28;20190;-64
2023/10/16 02:38:23;;;;;;;26.80;25.70;;;;;;;-141.02;100.00;40260.63;5083056;28;20624;-66
2023/10/16 02:40:53;;;;;;;26.80;25.70;;;;;;;-141.02;100.00;40320.09;5091941;28;20189;-58
2023/10/16 02:43:21;;;;;;;28.47;27.27;;;;;;;-141.02;100.00;40364.22;5091811;28;20190;-62
2023/10/16 02:45:52;;;;;;;29.40;28.20;;;;;;;-141.02;100.00;40352.69;5091842;28;20194;-62
2023/10/16 02:48:21;;;;;;;29.83;28.52;;;;;;;-141.02;100.00;40341.19;5092005;28;20218;-61
2023/10/16 02:50:53;;;;;;;27.52;26.42;;;;;;;-141.02;100.00;40392.97;5091875;28;20198;-60
2023/10/16 02:53:22;;;;;;;28.30;27.10;;;;;;;-141.02;100.00;40352.69;5091907;28;20182;-63
2023/10/16 02:55:53;;;;;;;29.00;27.80;;;;;;;-141.02;100.00;40387.22;5088896;28;20233;-65
2023/10/16 02:58:22;;;;;;;25.55;24.55;;;;;;;-141.02;100.00;40398.75;5071502;28;20277;-65
2023/10/16 03:00:55;;;;;;;28.63;27.42;;;;;;;-141.02;100.00;40394.91;5071676;28;20734;-65
2023/10/16 03:03:24;;;;;;;27.90;26.80;;;;;;;-141.02;100.00;40417.94;5071543;28;20197;-67
2023/10/16 03:05:52;;;;;;;30.10;28.90;;;;;;;-141.02;100.00;40400.66;5071470;28;20289;-66
2023/10/16 03:08:29;;;;;;;21.63;20.83;;;;;;;-141.02;100.00;40360.38;5080971;28;20730;-65
2023/10/16 03:10:56;;;;;;;21.73;20.93;;;;;;;-141.02;100.00;40410.25;5095642;28;20190;-59
2023/10/16 03:13:25;;;;;;;26.73;25.63;;;;;;;-141.02;100.00;40429.44;5095648;28;20272;-62
2023/10/16 03:16:04;;;;;;;27.87;26.77;;;;;;;-141.02;100.00;40414.09;5095313;28;20198;-68
2023/10/16 03:18:31;;;;;;;24.48;23.58;;;;;;;-141.02;100.00;40467.81;5095688;28;20250;-65
2023/10/16 03:21:01;;;;;;;23.90;23.00;;;;;;;-141.02;100.00;40448.63;5095266;28;20289;-68
2023/10/16 03:23:28;;;;;;;25.23;24.23;;;;;;;-141.02;100.00;40456.28;5095250;28;20714;-65
2023/10/16 03:25:58;;;;;;;24.80;23.80;;;;;;;-141.02;100.00;40485.06;5095101;28;20194;-67
2023/10/16 03:28:26;;;;;;;25.97;24.97;;;;;;;-141.02;100.00;40483.16;5095026;28;20220;-66
2023/10/16 03:31:00;;;;;;;26.30;25.30;;;;;;;-141.02;100.00;40463.97;5095061;28;20200;-68
2023/10/16 03:33:27;;;;;;;26.97;25.87;;;;;;;-141.02;100.00;40469.72;5095036;28;20281;-62
2023/10/16 03:35:54;;;;;;;27.13;26.03;;;;;;;-141.02;100.00;40490.81;5095538;28;20201;-68
2023/10/16 03:38:36;;;;;;;25.70;24.70;;;;;;;-141.02;100.00;40492.75;5094862;28;20675;-68
2023/10/16 03:41:04;;;;;;;27.10;26.00;;;;;;;-141.02;100.00;40490.81;5095135;28;20661;-66
2023/10/16 03:43:32;;;;;;;26.60;25.50;;;;;;;-141.02;100.00;40498.50;5095018;28;20198;-63
2023/10/16 03:46:02;;;;;;;26.67;25.57;;;;;;;-141.02;100.00;40527.28;5094808;28;20675;-66
2023/10/16 03:48:29;;;;;;;27.00;25.90;;;;;;;-141.02;100.00;40510.00;5094962;28;20276;-67
2023/10/16 03:51:00;;;;;;;27.00;25.90;;;;;;;-141.02;100.00;40533.03;5094774;28;20286;-68
2023/10/16 03:53:32;;;;;;;25.63;24.63;;;;;;;-141.02;100.00;40542.63;5094937;28;20193;-66
2023/10/16 03:55:59;;;;;;;25.87;24.87;;;;;;;-141.02;100.00;40546.47;5094578;28;20273;-65
2023/10/16 03:58:27;;;;;;;28.37;27.27;;;;;;;-141.02;100.00;40552.22;5094933;28;20228;-68
2023/10/16 04:00:56;;;;;;;25.03;24.03;;;;;;;-141.02;100.00;40563.72;5094815;28;20200;-67
2023/10/16 04:03:26;;;;;;;20.87;20.07;;;;;;;-141.02;100.00;40561.81;5094757;28;20550;-63
2023/10/16 04:05:54;;;;;;;21.73;20.93;;;;;;;-141.02;100.00;40594.41;5081920;28;20195;-68
2023/10/16 04:08:23;;;;;;;26.20;25.13;;;;;;;-141.02;100.00;40590.59;5074487;28;20222;-67
2023/10/16 04:10:53;;;;;;;25.67;24.67;;;;;;;-141.02;100.00;40628.94;5074050;28;20206;-66
2023/10/16 04:13:25;;;;;;;28.77;27.57;;;;;;;-141.02;100.00;40628.94;5074344;28;20256;-64
2023/10/16 04:16:13;;;;;;;31.80;30.40;;;;;;;-141.02;100.00;40630.88;5074307;28;20187;-64
2023/10/16 04:18:41;;;;;;;29.23;28.03;;;;;;;-141.02;100.00;40628.94;5077728;28;20555;-68
2023/10/16 04:23:55;;;;;;;30.57;29.27;;;;;;;-141.02;100.00;40621.28;5085121;28;20281;-67
2023/10/16 04:26:29;;;;;;;13.53;13.13;;;;;;;-141.02;100.00;40644.28;5094036;28;20186;-66
2023/10/16 04:31:45;;;;;;;27.83;26.63;;;;;;;-141.02;100.00;40640.47;5094049;28;20312;-67
2023/10/16 04:34:24;;;;;;;29.53;28.23;;;;;;;-141.02;100.00;40694.19;5093806;28;20663;-61
2023/10/16 04:37:24;;;;;;;30.10;28.80;;;;;;;-141.02;100.00;40698.00;5093761;28;20662;-67
2023/10/16 04:45:26;;;;;;;29.90;28.60;;;;;;;-141.02;100.00;40772.84;5093974;28;20557;-61
2023/10/16 04:48:06;;;;;;;31.33;29.93;;;;;;;-141.02;100.00;40832.31;5093827;28;20213;-65
2023/10/16 04:50:40;;;;;;;32.27;30.87;;;;;;;-141.02;100.00;40828.47;5093720;28;20549;-67
2023/10/16 04:53:08;;;;;;;30.67;29.37;;;;;;;-141.02;100.00;40939.75;5094057;28;20194;-64
2023/10/16 04:56:04;;;;;;;31.60;30.20;;;;;;;-141.02;100.00;41008.84;5093678;28;20201;-63
2023/10/16 04:58:39;;;;;;;31.57;30.17;;;;;;;-141.02;100.00;41081.75;5093595;28;20194;-66
2023/10/16 05:06:49;;;;;;;26.13;25.10;;;;;;;-141.02;100.00;41212.22;5093044;28;20201;-67
2023/10/16 06:15:33;;;;;;;29.10;27.80;;;;;;;-141.02;100.00;41833.97;5092589;28;20193;-59
2023/10/16 06:18:04;;;;;;;31.60;30.10;;;;;;;-141.02;100.00;41814.78;5092306;28;20233;-65
2023/10/16 06:20:31;;;;;;;16.10;15.40;;;;;;;-141.02;100.00;41830.13;5092456;28;20190;-65
2023/10/16 06:22:58;;;;;;;15.77;15.17;;;;;;;-141.02;100.00;41839.72;5092240;28;20284;-68
2023/10/16 06:25:28;;;;;;;15.73;15.13;;;;;;;-141.02;100.00;41851.25;5092311;28;20190;-59
2023/10/16 06:27:57;;;;;;;28.57;27.27;;;;;;;-141.02;100.00;41847.41;5092098;28;20225;-67
2023/10/16 06:30:24;;;;;;;30.07;28.67;;;;;;;-141.02;100.00;41837.81;5092267;28;20204;-68
2023/10/16 06:32:52;;;;;;;33.57;31.97;;;;;;;-141.02;100.00;41837.81;5092201;28;20197;-63
2023/10/16 06:35:19;;;;;;;29.70;28.37;;;;;;;-141.02;100.00;41880.03;5092221;28;20277;-68
2023/10/16 06:37:51;;;;;;;27.03;25.83;;;;;;;-141.02;100.00;41868.53;5091923;28;20284;-66
2023/10/16 06:40:24;;;;;;;29.37;28.07;;;;;;;-141.02;100.00;41878.13;5091960;28;20217;-64
2023/10/16 06:42:54;;;;;;;29.33;27.97;;;;;;;-141.02;100.00;41868.53;5092253;28;20214;-67
2023/10/16 06:45:40;;;;;;;30.40;29.00;;;;;;;-141.02;100.00;41899.22;5095305;28;20201;-68
2023/10/16 06:48:10;;;;;;;16.90;16.20;;;;;;;-141.02;99.71;41893.47;5096132;28;20217;-67
2023/10/16 06:50:44;;;;;;;17.10;16.40;;;;;;;-141.02;98.17;41910.75;5095618;28;20186;-68
2023/10/16 06:53:11;;;;;;;16.98;16.27;;;;;;;-141.02;97.24;41918.41;5096149;28;20217;-67
2023/10/16 06:55:38;;;;;;;32.13;30.63;;;;;;;-141.02;95.27;41964.47;5095783;28;20197;-67
2023/10/16 06:58:06;;;;;;;33.60;32.00;;;;;;;-141.02;93.29;41943.38;5096017;28;20198;-63
2023/10/16 07:00:38;;;;;;;30.98;29.50;;;;;;;-141.02;90.95;42000.94;5095638;28;20204;-66
2023/10/16 07:03:09;;;;;;;33.53;31.92;;;;;;;-141.02;90.51;42014.38;5095639;28;20228;-66
2023/10/16 07:05:48;;;;;;;33.53;31.92;;;;;;;-141.02;90.90;42014.38;5095891;28;20217;-68
2023/10/16 07:08:17;;;;;;;31.67;30.17;;;;;;;-141.02;88.02;42068.13;5095462;28;20218;-64
2023/10/16 07:10:49;;;;;;;32.95;31.35;;;;;;;-141.02;86.46;42141.06;5095716;28;20201;-65
2023/10/16 07:13:26;;;;;;;17.60;16.80;;;;;;;-141.02;85.76;42139.13;5095482;28;20182;-67
2023/10/16 07:15:57;;;;;;;17.80;17.00;;;;;;;-141.02;85.00;42133.38;5095678;28;20189;-67
2023/10/16 07:18:25;;;;;;;17.00;16.30;;;;;;;-141.02;83.88;42187.13;5095314;28;20201;-67
2023/10/16 07:21:07;;;;;;;35.83;34.03;;;;;;;-141.02;84.46;42181.38;5095542;28;20205;-61
2023/10/16 07:23:35;;;;;;;33.28;31.67;;;;;;;-141.02;81.29;42214.00;5095325;28;20186;-67
2023/10/16 07:26:02;;;;;;;31.27;29.77;;;;;;;-141.02;79.59;42281.19;5095699;28;20198;-63
2023/10/16 07:28:30;;;;;;;33.47;31.83;;;;;;;-141.02;80.63;42321.47;5095354;28;20252;-65
2023/10/16 07:31:02;;;;;;;31.15;29.65;;;;;;;-141.02;77.61;42319.56;5095033;28;20190;-65
2023/10/16 07:33:30;;;;;;;31.05;29.55;;;;;;;-141.02;76.13;42363.72;5095058;28;20190;-65
2023/10/16 07:35:58;;;;;;;31.85;30.35;;;;;;;-141.02;75.70;42386.75;5095247;28;20634;-66
2023/10/16 07:38:27;;;;;;;18.20;17.40;;;;;;;-141.02;77.97;42413.63;5095188;28;20197;-67
2023/10/16 07:40:55;;;;;;;17.45;16.65;;;;;;;-141.02;77.84;42463.53;5094838;28;20554;-66
2023/10/16 07:43:26;;;;;;;18.00;17.10;;;;;;;-141.02;75.47;42452.00;5094833;28;20736;-67
2023/10/16 07:46:07;;;;;;;17.83;16.92;;;;;;;-141.02;74.41;42471.19;5094875;28;20563;-66
2023/10/16 07:48:37;;;;;;;17.95;17.15;;;;;;;-141.02;73.16;42478.88;5094704;28;20718;-67
2023/10/16 07:51:06;;;;;;;32.47;30.88;;;;;;;-141.02;73.71;42480.81;5094825;28;20300;-66
2023/10/16 07:53:35;;;;;;;32.70;31.20;;;;;;;-141.02;72.69;42482.72;5094672;28;20190;-63
2023/10/16 07:56:03;;;;;;;32.17;30.58;;;;;;;-141.02;74.34;42478.88;5093587;28;20209;-66
2023/10/16 07:58:34;;;;;;;31.42;29.85;;;;;;;-141.02;73.46;42517.28;5080187;28;20201;-67
2023/10/16 08:01:32;;;;;;;32.47;30.88;;;;;;;-141.02;72.69;42194.81;5074266;28;20573;-64
2023/10/16 08:04:00;;;;;;;32.78;31.17;;;;;;;-141.02;72.68;42557.59;5074584;28;20285;-65
2023/10/16 08:06:28;;;;;;;32.25;30.65;;;;;;;-141.02;72.46;42549.91;5074591;28;20201;-64
2023/10/16 08:09:35;;;;;;;17.67;16.88;;;;;;;-141.02;67.83;42626.69;5074601;28;20230;-64
2023/10/16 08:11:57;;;;;;;17.42;16.63;;;;;;;-141.02;65.30;42667.00;5074112;28;20277;-67
2023/10/16 08:14:24;;;;;;;23.08;21.95;;;;;;;-141.02;64.74;42690.03;5073990;28;20680;-63
2023/10/16 08:16:58;;;;;;;34.00;32.25;;;;;;;-141.02;65.55;42736.13;5073953;28;20591;-65
2023/10/16 08:19:31;;;;;;;35.85;33.95;;;;;;;-141.02;65.36;42778.34;5074028;28;20194;-66
2023/10/16 08:21:58;;;;;;;37.90;35.90;;;;;;;-141.02;64.15;42755.31;5074210;28;20198;-63
2023/10/16 08:24:25;;;;;;;37.13;35.17;;;;;;;-141.02;62.43;42786.03;5073805;28;20628;-65
2023/10/16 08:26:52;;;;;;;36.35;34.45;;;;;;;-141.02;60.96;42828.25;5073606;28;20194;-64
2023/10/16 08:29:21;;;;;;;16.85;16.05;;;;;;;-141.02;61.46;42849.38;5073643;28;20275;-65
2023/10/16 08:31:55;;;;;;;16.92;16.13;;;;;;;-141.02;60.69;42943.44;5073619;28;20665;-66
2023/10/16 08:34:22;;;;;;;16.75;15.95;;;;;;;-141.02;61.11;42945.38;5074003;28;20306;-67
2023/10/16 08:36:51;;;;;;;37.13;35.13;;;;;;;-141.02;61.67;42993.34;5073513;28;20704;-65
2023/10/16 08:39:20;;;;;;;33.70;31.92;;;;;;;-141.02;60.91;43001.03;5073833;28;20222;-64
2023/10/16 08:41:52;;;;;;;31.67;30.10;;;;;;;-141.02;59.93;43029.84;5073675;28;20198;-64
2023/10/16 08:44:21;;;;;;;29.15;27.75;;;;;;;-141.02;60.24;43012.56;5073828;28;20186;-64
2023/10/16 08:47:11;;;;;;;36.63;34.72;;;;;;;-141.02;60.72;43026.00;5073974;28;20668;-61
2023/10/16 08:49:39;;;;;;;36.50;34.60;;;;;;;-141.02;61.88;43050.97;5073303;28;20692;-66
2023/10/16 08:52:10;;;;;;;15.98;15.27;;;;;;;-141.02;59.42;42920.41;5073213;28;20237;-68
2023/10/16 08:55:00;;;;;;;15.93;15.23;;;;;;;-141.02;60.75;43054.78;5073312;28;20194;-62
2023/10/16 08:57:27;;;;;;;15.90;15.20;;;;;;;-141.02;60.76;43056.72;5073540;28;20260;-64
2023/10/16 08:59:57;;;;;;;37.63;35.63;;;;;;;-141.02;60.85;43104.72;5073377;28;20577;-62
2023/10/16 09:02:27;;;;;;;38.28;36.25;;;;;;;-141.02;61.05;43068.22;5073589;28;20251;-65
2023/10/16 09:04:56;;;;;;;37.35;35.45;;;;;;;-141.02;60.93;43123.91;5073056;28;20710;-66
2023/10/16 09:07:25;;;;;;;38.55;36.55;;;;;;;-141.02;61.09;43112.41;5072840;28;20195;-68
2023/10/16 09:09:55;;;;;;;36.97;35.10;;;;;;;-141.02;61.06;43146.94;5073139;28;20381;-66
2023/10/16 09:12:26;;;;;;;21.48;20.48;;;;;;;-141.02;62.57;43097.03;5073014;28;20649;-68
2023/10/16 09:14:53;;;;;;;16.00;15.30;;;;;;;-141.02;60.78;43122.00;5073059;28;20264;-69
2023/10/16 09:17:21;;;;;;;15.80;15.10;;;;;;;-141.02;60.82;43162.31;5072804;28;20655;-67
2023/10/16 09:19:53;;;;;;;15.93;15.23;;;;;;;-141.02;61.54;43158.47;5072939;28;20209;-67
2023/10/16 09:22:23;;;;;;;39.17;37.13;;;;;;;-141.02;61.84;43166.16;5073445;28;20276;-66
2023/10/16 09:24:53;;;;;;;40.17;38.08;;;;;;;-141.02;61.40;43146.94;5073002;28;20289;-58
2023/10/16 09:27:22;;;;;;;30.52;29.13;;;;;;;-141.02;62.20;43187.28;5072586;28;20742;-66
2023/10/16 09:29:54;;;;;;;39.85;37.85;;;;;;;-141.02;61.81;43219.91;5072703;28;20637;-67
2023/10/16 09:32:26;;;;;;;36.92;35.05;;;;;;;-141.02;61.79;43156.56;5073039;28;20201;-63
2023/10/16 09:34:53;;;;;;;15.50;14.90;;;;;;;-141.02;63.77;43181.50;5072409;28;20281;-64
2023/10/16 09:37:24;;;;;;;15.25;14.65;;;;;;;-141.02;63.19;43158.47;5072902;28;20339;-67
2023/10/16 09:39:56;;;;;;;15.95;15.25;;;;;;;-141.02;63.91;43200.72;5072528;28;20189;-66
2023/10/16 09:42:25;;;;;;;37.53;35.58;;;;;;;-141.02;62.36;43170.00;5072329;28;20187;-67
2023/10/16 09:44:59;;;;;;;36.40;34.55;;;;;;;-141.02;61.90;43189.19;5072278;28;20740;-61
2023/10/16 09:47:26;;;;;;;35.33;33.53;;;;;;;-141.02;62.68;43193.03;5072310;28;20190;-63
2023/10/16 09:49:55;;;;;;;36.35;34.55;;;;;;;-141.02;62.53;43181.50;5072569;28;20230;-65
2023/10/16 09:52:23;;;;;;;41.17;39.08;;;;;;;-141.02;60.59;43181.50;5072003;28;20236;-64
2023/10/16 09:54:53;;;;;;;15.55;14.95;;;;;;;-141.02;60.57;43185.34;5072434;28;20206;-63
2023/10/16 09:57:23;;;;;;;15.23;14.63;;;;;;;-141.02;60.48;43193.03;5072392;28;20631;-67
2023/10/16 10:00:01;;;;;;;15.10;14.50;;;;;;;-141.02;61.09;43244.88;5072154;28;20195;-62
2023/10/16 10:02:35;;;;;;;35.00;33.20;;;;;;;-141.02;60.30;43256.38;5072434;28;20622;-62
2023/10/16 10:05:10;;;;;;;33.75;32.05;;;;;;;-141.02;61.00;43241.03;5072356;28;20186;-65
2023/10/16 10:07:47;;;;;;;36.03;34.22;;;;;;;-141.02;60.96;43216.06;5072077;28;20232;-68
2023/10/16 10:13:09;;;;;;;15.05;14.45;;;;;;;-141.02;58.56;43281.34;5033579;28;20206;-62
2023/10/16 10:15:40;;;;;;;15.07;14.48;;;;;;;-141.02;58.85;43310.16;5072265;28;20194;-67
2023/10/16 10:20:58;;;;;;;33.42;31.75;;;;;;;-141.02;60.54;43356.22;5071736;28;20233;-64
2023/10/16 10:23:26;;;;;;;35.88;34.08;;;;;;;-141.02;60.59;43352.38;5071911;28;20192;-65
2023/10/16 10:25:54;;;;;;;36.75;34.90;;;;;;;-141.02;60.10;43350.47;5071831;28;20198;-66
2023/10/16 10:28:28;;;;;;;35.17;33.38;;;;;;;-141.02;61.00;43373.50;5072035;28;20198;-62
2023/10/16 10:31:02;;;;;;;37.28;35.47;;;;;;;-141.02;61.76;43377.34;5072063;28;20283;-65
2023/10/16 10:33:51;;;;;;;14.63;14.02;;;;;;;-141.02;62.24;43392.72;5072108;28;20269;-67
2023/10/16 10:36:34;;;;;;;14.75;14.15;;;;;;;-141.02;58.31;43404.22;5072532;28;20201;-63
2023/10/16 10:39:39;;;;;;;15.38;14.77;;;;;;;-141.02;60.21;43388.88;5071713;28;20226;-66
2023/10/16 10:42:16;;;;;;;35.58;33.78;;;;;;;-141.02;61.49;43433.03;5071717;28;20277;-67
2023/10/16 10:44:56;;;;;;;38.80;36.80;;;;;;;-141.02;62.06;43448.41;5071986;28;20277;-66
2023/10/16 10:47:30;;;;;;;38.38;36.47;;;;;;;-141.02;61.92;43461.84;5071972;28;20237;-66
2023/10/16 10:50:00;;;;;;;39.17;37.28;;;;;;;-141.02;59.28;43486.78;5071931;28;20218;-67
2023/10/16 10:52:32;;;;;;;14.80;14.20;;;;;;;-141.02;61.29;43469.50;5071652;28;20234;-67
2023/10/16 10:55:00;;;;;;;14.80;14.20;;;;;;;-141.02;61.22;43492.56;5071653;28;20187;-65
2023/10/16 10:57:28;;;;;;;14.70;14.10;;;;;;;-141.02;60.14;43446.47;5071502;28;20215;-69
2023/10/16 10:59:56;;;;;;;21.10;20.17;;;;;;;-141.02;59.76;43481.03;5075113;28;20226;-68
2023/10/16 11:02:48;;;;;;;36.38;34.58;;;;;;;-141.02;58.21;43519.44;5091654;28;20584;-63
2023/10/16 11:05:25;;;;;;;37.10;35.20;;;;;;;-141.02;57.53;43496.41;5091707;28;20189;-67
2023/10/16 11:10:44;;;;;;;14.45;13.95;;;;;;;-141.02;58.39;43561.69;5091977;28;20209;-69
2023/10/16 11:13:12;;;;;;;14.70;14.10;;;;;;;-141.02;57.02;43603.94;5091962;28;20204;-68
2023/10/16 11:15:45;;;;;;;14.85;14.25;;;;;;;-141.02;56.33;43696.09;5091507;28;20289;-63
2023/10/16 11:18:18;;;;;;;14.77;14.18;;;;;;;-141.02;56.75;43736.41;5091851;28;20276;-67
2023/10/16 11:20:47;;;;;;;34.45;32.75;;;;;;;-141.02;53.92;43922.69;5092171;28;20198;-68
2023/10/16 11:23:14;;;;;;;34.88;33.17;;;;;;;-141.02;55.92;43911.16;5089207;28;20277;-66
2023/10/16 11:25:44;;;;;;;34.60;32.90;;;;;;;-141.02;56.43;43903.50;5071526;28;20260;-66
2023/10/16 11:28:17;;;;;;;34.67;32.95;;;;;;;-141.02;58.12;43867.00;5071608;28;20195;-67
2023/10/16 11:30:49;;;;;;;14.48;13.98;;;;;;;-141.02;58.55;43857.41;5073653;28;20250;-66
2023/10/16 11:33:25;;;;;;;14.50;14.00;;;;;;;-141.02;56.79;43886.19;5092664;28;20201;-67
2023/10/16 11:35:54;;;;;;;14.50;14.00;;;;;;;-141.02;56.23;43899.66;5094968;28;20570;-63
2023/10/16 11:38:29;;;;;;;35.78;33.90;;;;;;;-141.02;55.55;43882.38;5094963;28;20200;-66
2023/10/16 11:40:57;;;;;;;34.53;32.83;;;;;;;-141.02;55.46;43926.53;5083347;28;20570;-67
2023/10/16 11:43:24;;;;;;;35.95;34.15;;;;;;;-141.02;55.88;43895.81;5074881;28;20195;-67
2023/10/16 11:45:56;;;;;;;36.65;34.85;;;;;;;-141.02;56.62;43897.72;5081418;28;20285;-64
2023/10/16 11:48:35;;;;;;;36.25;34.45;;;;;;;-141.02;57.29;43903.50;5095393;28;20201;-62
2023/10/16 11:51:08;;;;;;;14.45;13.95;;;;;;;-141.02;56.67;43941.91;5086488;28;20320;-68
2023/10/16 11:53:37;;;;;;;15.00;14.40;;;;;;;-141.02;56.72;43936.13;5074458;28;20198;-66
2023/10/16 11:56:08;;;;;;;14.70;14.20;;;;;;;-141.02;54.13;44003.34;5074408;28;20190;-66
2023/10/16 11:58:36;;;;;;;35.55;33.75;;;;;;;-141.02;54.44;44030.22;5074331;28;20198;-63
2023/10/16 12:01:11;;;;;;;37.78;35.88;;;;;;;-141.02;52.58;44084.00;5074273;28;20242;-65
2023/10/16 12:03:39;;;;;;;38.58;36.58;;;;;;;-141.02;53.17;44110.88;5074604;28;20186;-70
2023/10/16 12:06:08;;;;;;;39.63;37.53;;;;;;;-141.02;52.98;44147.38;5074471;28;20289;-68
2023/10/16 12:08:36;;;;;;;40.92;38.83;;;;;;;-141.02;52.62;44168.50;5074555;28;20232;-69
2023/10/16 12:11:04;;;;;;;14.45;13.95;;;;;;;-141.02;53.15;44210.75;5074335;28;20230;-68
2023/10/16 12:13:31;;;;;;;14.60;14.10;;;;;;;-141.02;53.12;44245.31;5076166;28;20226;-66
2023/10/16 12:15:59;;;;;;;14.25;13.75;;;;;;;-141.02;52.97;44233.81;5094604;28;20639;-67
2023/10/16 12:18:29;;;;;;;34.03;32.33;;;;;;;-141.02;52.86;44214.59;5094229;28;20198;-70
2023/10/16 12:21:04;;;;;;;34.53;32.83;;;;;;;-141.02;53.08;44229.97;5094515;28;20190;-70
2023/10/16 12:23:33;;;;;;;36.20;34.40;;;;;;;-141.02;53.31;44218.44;5094466;28;20284;-69
2023/10/16 12:26:01;;;;;;;38.38;36.38;;;;;;;-141.02;52.39;44222.28;5081157;28;20194;-71
2023/10/16 12:28:31;;;;;;;38.85;36.85;;;;;;;-141.02;51.52;44249.16;5073833;28;20633;-70
2023/10/16 12:30:59;;;;;;;14.38;13.88;;;;;;;-141.02;52.45;44253.00;5073984;28;20336;-69
2023/10/16 12:33:27;;;;;;;14.10;13.60;;;;;;;-141.02;52.65;44262.63;5074006;28;20198;-70
2023/10/16 12:35:55;;;;;;;14.13;13.63;;;;;;;-141.02;54.30;44268.38;5074109;28;20259;-67
2023/10/16 12:38:24;;;;;;;14.13;13.63;;;;;;;-141.02;54.01;44256.84;5085260;28;20690;-69
2023/10/16 12:40:58;;;;;;;34.90;33.10;;;;;;;-141.02;54.18;44264.53;5093444;28;20204;-69
2023/10/16 12:43:27;;;;;;;36.28;34.47;;;;;;;-141.02;53.75;44266.44;5093687;28;20186;-70
2023/10/16 12:45:57;;;;;;;29.10;27.80;;;;;;;-141.02;53.40;44260.69;5083389;28;20641;-69
2023/10/16 12:48:29;;;;;;;34.08;32.47;;;;;;;-141.02;52.65;44266.44;5073283;28;20577;-70
2023/10/16 12:50:59;;;;;;;38.28;36.30;;;;;;;-141.02;52.73;44310.63;5073079;28;20253;-70
2023/10/16 12:53:28;;;;;;;14.07;13.57;;;;;;;-141.02;53.34;44295.25;5073335;28;20640;-69
2023/10/16 12:55:58;;;;;;;14.27;13.77;;;;;;;-141.02;53.28;44345.19;5073975;28;20194;-68